createdAt,value
2019-01-11T00:03:04.688Z,83.62
2019-01-11T00:08:09.838Z,83.87
2019-01-11T00:13:15.243Z,84.30
2019-01-11T00:18:20.414Z,84.84
2019-01-11T00:23:25.470Z,84.87
2019-01-11T00:28:30.523Z,84.52
2019-01-11T00:33:35.636Z,84.55
2019-01-11T00:38:41.172Z,85.34
2019-01-11T00:43:46.278Z,84.36
2019-01-11T00:48:51.857Z,84.55
2019-01-11T00:53:56.911Z,84.25
2019-01-11T00:59:01.892Z,83.97
2019-01-11T01:04:06.912Z,84.22
2019-01-11T01:09:12.191Z,84.50
2019-01-11T01:14:17.225Z,84.79
2019-01-11T01:19:22.749Z,85.40
2019-01-11T01:24:27.782Z,85.74
2019-01-11T01:29:32.820Z,86.36
2019-01-11T01:34:37.846Z,86.57
2019-01-11T01:39:45.983Z,86.77
2019-01-11T01:44:50.983Z,87.08
2019-01-11T01:49:55.951Z,86.89
2019-01-11T01:55:00.984Z,86.78
2019-01-11T02:00:08.080Z,86.52
2019-01-11T02:05:13.136Z,86.94
2019-01-11T02:10:18.390Z,87.22
2019-01-11T02:15:23.336Z,87.80
2019-01-11T02:20:28.367Z,88.10
2019-01-11T02:25:35.667Z,88.61
2019-01-11T02:30:40.734Z,88.58
2019-01-11T02:35:45.827Z,88.44
2019-01-11T02:40:50.811Z,89.11
2019-01-11T02:45:55.910Z,89.34
2019-01-11T02:51:00.885Z,89.37
2019-01-11T02:56:05.857Z,88.50
2019-01-11T03:01:10.825Z,88.71
2019-01-11T03:06:15.859Z,88.55
2019-01-11T03:11:20.967Z,88.75
2019-01-11T03:16:26.025Z,88.95
2019-01-11T03:21:31.025Z,89.27
2019-01-11T03:26:35.971Z,89.16
2019-01-11T03:31:41.494Z,89.19
2019-01-11T03:36:46.499Z,89.01
2019-01-11T03:42:06.325Z,89.00
2019-01-11T03:47:11.303Z,90.06
2019-01-11T03:52:16.299Z,90.97
2019-01-11T03:57:21.665Z,92.82
2019-01-11T04:02:26.757Z,93.54
2019-01-11T04:07:31.723Z,94.06
2019-01-11T04:12:36.709Z,95.15
2019-01-11T04:17:41.784Z,95.92
2019-01-11T04:22:50.208Z,96.23
2019-01-11T04:27:55.202Z,96.25
2019-01-11T04:33:00.220Z,97.17
2019-01-11T04:38:05.588Z,97.91
2019-01-11T04:43:10.591Z,98.52
2019-01-11T04:48:15.638Z,99.52
2019-01-11T04:53:20.692Z,100.00
2019-01-11T04:58:25.696Z,100.00
2019-01-11T05:03:31.930Z,100.00
2019-01-11T05:08:42.359Z,100.00
2019-01-11T05:13:52.496Z,100.00
2019-01-11T05:18:57.583Z,100.00
2019-01-11T05:24:03.045Z,100.00
2019-01-11T05:29:08.184Z,100.00
2019-01-11T05:34:13.191Z,100.00
2019-01-11T05:39:18.282Z,100.00
2019-01-11T05:44:23.375Z,100.00
2019-01-11T05:49:28.353Z,100.00
2019-01-11T05:54:33.771Z,100.00
2019-01-11T05:59:38.789Z,100.00
2019-01-11T06:04:48.440Z,100.00
2019-01-11T06:09:53.873Z,100.00
2019-01-11T06:14:59.063Z,100.00
2019-01-11T06:20:05.089Z,100.00
2019-01-11T06:25:10.324Z,100.00
2019-01-11T06:30:16.169Z,100.00
2019-01-11T06:35:21.321Z,100.00
2019-01-11T06:40:26.437Z,100.00
2019-01-11T06:45:31.451Z,100.00
2019-01-11T06:50:36.690Z,100.00
2019-01-11T06:55:41.895Z,100.00
2019-01-11T07:00:47.485Z,100.00
2019-01-11T07:05:52.981Z,100.00
2019-01-11T07:10:58.109Z,100.00
2019-01-11T07:16:03.223Z,100.00
2019-01-11T07:21:09.206Z,100.00
2019-01-11T07:26:14.391Z,100.00
2019-01-11T07:31:22.897Z,100.00
2019-01-11T07:36:29.526Z,100.00
2019-01-11T07:41:34.754Z,100.00
2019-01-11T07:46:41.429Z,100.00
2019-01-11T07:51:46.559Z,100.00
2019-01-11T07:56:52.994Z,100.00
2019-01-11T08:01:58.177Z,100.00
2019-01-11T08:07:03.307Z,100.00
2019-01-11T08:12:08.721Z,100.00
2019-01-11T08:17:14.065Z,100.00
2019-01-11T08:22:33.956Z,100.00
2019-01-11T08:27:38.960Z,100.00
2019-01-11T08:32:44.062Z,100.00
2019-01-11T08:37:49.609Z,100.00
2019-01-11T08:42:55.087Z,100.00
2019-01-11T08:48:00.659Z,100.00
2019-01-11T08:53:05.689Z,100.00
2019-01-11T08:58:10.781Z,100.00
2019-01-11T09:03:16.341Z,100.00
2019-01-11T09:08:21.913Z,100.00
2019-01-11T09:13:30.158Z,100.00
2019-01-11T09:18:39.715Z,100.00
2019-01-11T09:23:45.044Z,100.00
2019-01-11T09:28:51.233Z,100.00
2019-01-11T09:33:56.469Z,100.00
2019-01-11T09:39:02.169Z,100.00
2019-01-11T09:44:07.840Z,100.00
2019-01-11T09:49:13.057Z,100.00
2019-01-11T09:54:18.261Z,100.00
2019-01-11T09:59:34.903Z,100.00
2019-01-11T10:04:38.037Z,100.00
2019-01-11T10:09:43.167Z,100.00
2019-01-11T10:14:48.480Z,100.00
2019-01-11T10:19:53.537Z,100.00
2019-01-11T10:24:58.631Z,100.00
2019-01-11T10:30:04.611Z,100.00
2019-01-11T10:35:10.707Z,100.00
2019-01-11T10:40:16.897Z,100.00
2019-01-11T10:45:23.429Z,100.00
2019-01-11T10:50:28.507Z,100.00
2019-01-11T10:55:33.609Z,100.00
2019-01-11T11:00:38.705Z,100.00
2019-01-11T11:05:44.634Z,100.00
2019-01-11T11:10:49.669Z,100.00
2019-01-11T11:15:55.702Z,100.00
2019-01-11T11:21:00.716Z,100.00
2019-01-11T11:26:05.831Z,100.00
2019-01-11T11:31:11.259Z,100.00
2019-01-11T11:36:16.744Z,100.00
2019-01-11T11:41:21.795Z,100.00
2019-01-11T11:46:26.791Z,100.00
2019-01-11T11:51:32.036Z,100.00
2019-01-11T11:56:40.687Z,100.00
2019-01-11T12:01:46.841Z,100.00
2019-01-11T12:06:51.969Z,100.00
2019-01-11T12:11:57.017Z,100.00
2019-01-11T12:17:02.012Z,100.00
2019-01-11T12:22:07.141Z,100.00
2019-01-11T12:27:12.199Z,100.00
2019-01-11T12:32:19.695Z,100.00
2019-01-11T12:37:24.143Z,100.00
2019-01-11T12:42:29.492Z,100.00
2019-01-11T12:47:35.152Z,100.00
2019-01-11T12:52:40.241Z,100.00
2019-01-11T12:57:45.827Z,100.00
2019-01-11T13:02:50.968Z,100.00
2019-01-11T13:07:56.097Z,100.00
2019-01-11T13:13:02.865Z,100.00
2019-01-11T13:18:07.992Z,100.00
2019-01-11T13:23:13.005Z,100.00
2019-01-11T13:28:18.162Z,100.00
2019-01-11T13:33:23.587Z,100.00
2019-01-11T13:38:36.837Z,100.00
2019-01-11T13:43:42.375Z,100.00
2019-01-11T13:48:47.582Z,100.00
2019-01-11T13:53:53.540Z,100.00
2019-01-11T13:58:58.525Z,100.00
2019-01-11T14:04:03.707Z,100.00
2019-01-11T14:09:09.809Z,100.00
2019-01-11T14:14:14.967Z,100.00
2019-01-11T14:19:20.097Z,100.00
2019-01-11T14:24:25.671Z,100.00
2019-01-11T14:29:30.812Z,100.00
2019-01-11T14:34:39.359Z,100.00
2019-01-11T14:39:46.450Z,100.00
2019-01-11T14:44:58.197Z,100.00
2019-01-11T14:50:03.297Z,100.00
2019-01-11T14:55:08.506Z,100.00
2019-01-11T15:00:17.383Z,100.00
2019-01-11T15:05:22.849Z,100.00
2019-01-11T15:10:28.160Z,100.00
2019-01-11T15:15:33.242Z,100.00
2019-01-11T15:20:38.489Z,100.00
2019-01-11T15:25:43.649Z,100.00
2019-01-11T15:30:49.106Z,100.00
2019-01-11T15:35:54.856Z,100.00
2019-01-11T15:41:00.224Z,100.00
2019-01-11T15:46:07.340Z,100.00
2019-01-11T15:51:12.479Z,100.00
2019-01-11T15:56:24.287Z,100.00
2019-01-11T16:01:29.242Z,100.00
2019-01-11T16:06:35.830Z,100.00
2019-01-11T16:11:50.268Z,100.00
2019-01-11T16:17:02.722Z,100.00
2019-01-11T16:22:08.088Z,100.00
2019-01-11T16:27:13.277Z,100.00
2019-01-11T16:32:18.536Z,100.00
2019-01-11T16:37:23.723Z,100.00
2019-01-11T16:42:29.161Z,100.00
2019-01-11T16:47:34.245Z,100.00
2019-01-11T16:52:39.375Z,100.00
2019-01-11T16:57:44.451Z,100.00
2019-01-11T17:02:49.692Z,100.00
2019-01-11T17:07:54.860Z,100.00
2019-01-11T17:12:59.839Z,100.00
2019-01-11T17:18:05.195Z,100.00
2019-01-11T17:23:10.210Z,100.00
2019-01-11T17:28:15.640Z,100.00
2019-01-11T17:33:20.663Z,100.00
2019-01-11T17:38:25.727Z,100.00
2019-01-11T17:43:30.810Z,100.00
2019-01-11T17:48:36.180Z,100.00
2019-01-11T17:53:41.497Z,100.00
2019-01-11T17:58:47.106Z,100.00
2019-01-11T18:03:52.288Z,100.00
2019-01-11T18:08:57.912Z,100.00
2019-01-11T18:14:03.192Z,100.00
2019-01-11T18:19:08.494Z,100.00
2019-01-11T18:24:14.061Z,100.00
2019-01-11T18:29:19.367Z,100.00
2019-01-11T18:34:24.703Z,100.00
2019-01-11T18:39:31.271Z,100.00
2019-01-11T18:44:37.265Z,100.00
2019-01-11T18:49:43.182Z,100.00
2019-01-11T18:54:48.822Z,100.00
2019-01-11T18:59:54.070Z,100.00
2019-01-11T19:04:59.546Z,100.00
2019-01-11T19:10:06.599Z,100.00
2019-01-11T19:15:17.550Z,100.00
2019-01-11T19:20:27.909Z,100.00
2019-01-11T19:25:33.196Z,100.00
2019-01-11T19:30:38.452Z,100.00
2019-01-11T19:35:44.169Z,100.00
2019-01-11T19:40:49.214Z,100.00
2019-01-11T19:45:54.925Z,100.00
2019-01-11T19:51:00.108Z,100.00
2019-01-11T19:56:18.454Z,100.00
2019-01-11T20:01:23.599Z,100.00
2019-01-11T20:06:28.745Z,100.00
2019-01-11T20:11:34.143Z,100.00
2019-01-11T20:16:39.515Z,100.00
2019-01-11T20:21:44.656Z,100.00
2019-01-11T20:26:49.763Z,100.00
2019-01-11T20:31:55.374Z,100.00
2019-01-11T20:37:08.897Z,100.00
2019-01-11T20:42:14.055Z,100.00
2019-01-11T20:47:22.115Z,100.00
2019-01-11T20:52:27.341Z,100.00
2019-01-11T20:57:32.901Z,100.00
2019-01-11T21:02:38.102Z,100.00
2019-01-11T21:07:43.313Z,100.00
2019-01-11T21:12:48.921Z,100.00
2019-01-11T21:17:54.102Z,100.00
2019-01-11T21:22:59.284Z,100.00
2019-01-11T21:28:04.430Z,100.00
2019-01-11T21:33:11.087Z,100.00
2019-01-11T21:38:16.494Z,100.00
2019-01-11T21:43:21.740Z,100.00
2019-01-11T21:48:26.901Z,100.00
2019-01-11T21:53:32.496Z,100.00
2019-01-11T21:58:37.646Z,100.00
2019-01-11T22:03:44.833Z,100.00
2019-01-11T22:08:49.876Z,100.00
2019-01-11T22:13:54.974Z,100.00
2019-01-11T22:19:00.012Z,100.00
2019-01-11T22:24:05.426Z,100.00
2019-01-11T22:29:10.751Z,100.00
2019-01-11T22:34:15.934Z,100.00
2019-01-11T22:39:21.006Z,100.00
2019-01-11T22:44:26.204Z,100.00
2019-01-11T22:49:31.597Z,100.00
2019-01-11T22:54:36.728Z,100.00
2019-01-11T22:59:41.763Z,100.00
2019-01-11T23:04:47.733Z,100.00
2019-01-11T23:09:56.995Z,100.00
2019-01-11T23:15:02.008Z,100.00
2019-01-11T23:20:09.853Z,100.00
2019-01-11T23:25:14.880Z,100.00
2019-01-11T23:30:20.231Z,100.00
2019-01-11T23:35:25.224Z,100.00
2019-01-11T23:40:30.307Z,100.00
2019-01-11T23:45:35.300Z,100.00
2019-01-11T23:50:40.270Z,100.00
2019-01-11T23:55:45.661Z,100.00
